Time;durP1;ratioP1;P1;durP2;ratioP2;P2;SDS_P1;SDS_P2;PMS_P1;PMS_P2;Temp;Humidity;BMP_temperature;BMP_pressure;BME280_temperature;BME280_humidity;BME280_pressure;Samples;Min_cycle;Max_cycle;Signal;HPM_P1;HPM_P2
2022/11/15 00:02:38;;;;;;;7.32;4.57;;;;;;;1.21;97.84;101287.13;10613085;27;20043;-76
2022/11/15 00:07:58;;;;;;;3.85;2.58;;;;;;;1.25;97.83;101277.59;10606763;27;20042;-76
2022/11/15 00:13:19;;;;;;;7.32;2.92;;;;;;;1.26;98.06;101279.25;10603246;28;20040;-74
2022/11/15 00:18:40;;;;;;;4.53;3.00;;;;;;;1.34;98.57;101260.13;10608447;27;20516;-74
2022/11/15 00:24:01;;;;;;;4.65;2.50;;;;;;;1.40;98.24;101236.88;10613618;28;20046;-75
2022/11/15 00:29:22;;;;;;;3.85;3.22;;;;;;;1.37;98.41;101234.53;10601304;28;20054;-74
2022/11/15 00:34:42;;;;;;;3.42;2.67;;;;;;;1.37;99.02;101221.84;10574688;28;20118;-74
2022/11/15 00:40:03;;;;;;;3.83;2.47;;;;;;;1.32;98.09;101205.44;10593153;28;20051;-76
2022/11/15 00:45:25;;;;;;;4.88;3.17;;;;;;;1.25;98.34;101190.25;10583648;28;20047;-76
2022/11/15 00:50:46;;;;;;;4.10;2.63;;;;;;;1.25;98.23;101169.47;10589823;28;20047;-76
2022/11/15 00:56:08;;;;;;;5.40;2.60;;;;;;;1.25;98.29;101158.66;10561921;28;20056;-76
2022/11/15 01:01:28;;;;;;;4.88;2.80;;;;;;;1.18;98.77;101152.38;10606914;27;20055;-74
2022/11/15 01:06:49;;;;;;;4.50;2.70;;;;;;;1.11;98.88;101151.56;10614666;28;20046;-74
2022/11/15 01:12:10;;;;;;;5.03;2.80;;;;;;;1.01;98.66;101141.16;10573468;28;20051;-74
2022/11/15 01:17:31;;;;;;;4.55;2.85;;;;;;;0.96;98.34;101135.53;10585702;27;20387;-76
2022/11/15 01:22:52;;;;;;;4.05;3.30;;;;;;;0.93;98.79;101122.44;10573091;28;20046;-76
2022/11/15 01:28:12;;;;;;;6.25;2.72;;;;;;;0.90;98.74;101117.47;10581799;28;20055;-75
2022/11/15 01:33:34;;;;;;;4.05;2.78;;;;;;;0.90;98.91;101110.19;10614637;27;20066;-75
2022/11/15 01:38:56;;;;;;;3.72;2.58;;;;;;;0.80;98.38;101111.59;10599528;28;20035;-74
2022/11/15 01:44:43;;;;;;;3.30;2.72;;;;;;;0.74;98.39;101107.88;10603411;27;20038;-75
2022/11/15 01:50:08;;;;;;;3.07;2.63;;;;;;;0.71;98.31;101091.25;10576318;27;20324;-75
2022/11/15 01:55:29;;;;;;;3.50;2.33;;;;;;;0.68;98.70;101087.06;10594615;28;20046;-75
2022/11/15 02:00:50;;;;;;;3.08;2.38;;;;;;;0.64;98.80;101058.81;10586885;28;20093;-76
2022/11/15 02:06:11;;;;;;;4.20;2.45;;;;;;;0.56;98.98;101040.94;10601699;28;20035;-74
2022/11/15 02:11:32;;;;;;;4.70;2.80;;;;;;;0.55;98.98;101033.06;10577705;28;20435;-75
2022/11/15 02:17:06;;;;;;;2.83;2.53;;;;;;;0.59;99.29;101015.41;10574349;28;20040;-75
2022/11/15 02:22:52;;;;;;;3.78;2.50;;;;;;;0.64;99.22;101006.66;10555249;28;20040;-75
2022/11/15 02:28:28;;;;;;;3.45;2.53;;;;;;;0.77;99.28;101003.97;10589030;28;20047;-75
2022/11/15 02:34:19;;;;;;;4.28;2.83;;;;;;;0.69;99.06;101001.47;10612074;28;20419;-75
2022/11/15 02:40:07;;;;;;;4.70;2.65;;;;;;;0.65;98.95;100992.97;10579333;28;20051;-75
2022/11/15 02:45:30;;;;;;;4.05;2.40;;;;;;;0.60;99.21;100982.78;10603549;28;20433;-75
2022/11/15 02:50:51;;;;;;;3.65;2.47;;;;;;;0.60;99.03;100976.56;10583083;27;20067;-76
2022/11/15 02:56:12;;;;;;;4.72;2.55;;;;;;;0.46;99.30;100966.78;10618226;27;20466;-76
2022/11/15 03:01:48;;;;;;;4.63;2.80;;;;;;;0.38;98.72;100940.84;10592447;28;20036;-74
2022/11/15 03:07:31;;;;;;;4.68;2.60;;;;;;;0.33;99.43;100946.00;10605931;28;20036;-74
2022/11/15 03:12:57;;;;;;;4.78;2.67;;;;;;;0.30;99.43;100939.16;10569516;28;20505;-74
2022/11/15 03:18:37;;;;;;;3.22;2.38;;;;;;;0.30;99.62;100925.66;10593546;28;20036;-74
2022/11/15 03:23:59;;;;;;;3.03;2.22;;;;;;;0.29;99.77;100920.47;10594346;28;20039;-74
2022/11/15 03:29:24;;;;;;;3.13;2.13;;;;;;;0.40;99.94;100916.34;10571531;28;20047;-74
2022/11/15 03:34:52;;;;;;;4.38;2.13;;;;;;;0.36;99.93;100898.91;10586517;28;20063;-74
2022/11/15 03:40:12;;;;;;;3.33;2.33;;;;;;;0.36;100.00;100898.91;10592356;28;20048;-75
2022/11/15 03:45:50;;;;;;;3.15;2.30;;;;;;;0.38;99.74;100900.34;10587853;28;20040;-74
2022/11/15 03:51:12;;;;;;;4.00;2.60;;;;;;;0.31;100.00;100891.41;10588958;28;20035;-74
2022/11/15 03:56:32;;;;;;;4.88;2.67;;;;;;;0.24;100.00;100894.09;10590591;28;20039;-74
2022/11/15 04:01:53;;;;;;;4.72;2.38;;;;;;;0.20;100.00;100889.34;10567948;28;20036;-74
2022/11/15 04:37:43;;;;;;;4.37;2.60;;;;;;;0.12;100.00;100857.16;10614920;28;20043;-75
2022/11/15 04:43:04;;;;;;;4.00;2.35;;;;;;;0.05;100.00;100857.16;10595975;28;20551;-75
2022/11/15 04:48:25;;;;;;;2.97;2.45;;;;;;;-0.04;100.00;100844.91;10572088;28;20048;-75
2022/11/15 04:53:46;;;;;;;4.30;2.53;;;;;;;-0.04;100.00;100845.72;10574060;28;20036;-75
2022/11/15 04:59:06;;;;;;;3.65;2.90;;;;;;;-0.05;100.00;100843.25;10584274;28;20410;-74
2022/11/15 05:04:27;;;;;;;5.97;3.17;;;;;;;-0.06;100.00;100842.41;10576848;28;20036;-77
2022/11/15 05:09:47;;;;;;;2.65;1.90;;;;;;;-0.14;100.00;100842.63;10593877;28;20078;-74
2022/11/15 05:15:08;;;;;;;3.75;2.38;;;;;;;-0.16;100.00;100841.16;10577861;28;20043;-75
2022/11/15 05:20:29;;;;;;;3.60;2.22;;;;;;;-0.07;100.00;100835.34;10588780;28;20050;-75
2022/11/15 05:25:50;;;;;;;3.25;2.70;;;;;;;-0.09;100.00;100833.91;10586064;28;20051;-75
2022/11/15 05:31:15;;;;;;;3.80;2.63;;;;;;;-0.09;100.00;100826.63;10599086;28;20449;-76
2022/11/15 05:36:43;;;;;;;3.45;2.67;;;;;;;-0.10;100.00;100835.78;10607467;28;20047;-77
2022/11/15 05:42:06;;;;;;;;;;;;;;;-0.11;100.00;100830.59;10598242;28;20051;-76
2022/11/15 05:47:29;;;;;;;4.60;2.78;;;;;;;-0.01;100.00;100829.13;10596660;28;19927;-76
2022/11/15 05:52:51;;;;;;;3.55;3.22;;;;;;;-0.05;100.00;100827.06;10556573;28;20157;-76
2022/11/15 05:58:12;;;;;;;3.50;2.80;;;;;;;-0.13;100.00;100836.19;10579202;28;20417;-76
2022/11/15 06:03:32;;;;;;;3.78;2.38;;;;;;;-0.16;100.00;100830.38;10611682;28;20410;-76
2022/11/15 06:08:53;;;;;;;3.25;2.17;;;;;;;-0.15;100.00;100843.66;10608555;28;20031;-77
2022/11/15 06:14:14;;;;;;;3.35;2.28;;;;;;;-0.20;100.00;100835.34;10604001;27;20066;-75
2022/11/15 06:19:34;;;;;;;3.13;2.05;;;;;;;-0.21;100.00;100839.06;10602241;28;20044;-75
2022/11/15 06:24:55;;;;;;;2.10;1.90;;;;;;;-0.23;100.00;100835.75;10609799;27;20409;-75
2022/11/15 06:30:16;;;;;;;2.80;1.88;;;;;;;-0.24;100.00;100833.25;10587926;28;20039;-75
2022/11/15 06:35:36;;;;;;;2.25;1.70;;;;;;;-0.20;100.00;100834.50;10591764;28;20044;-75
2022/11/15 06:41:08;;;;;;;1.40;1.30;;;;;;;-0.15;100.00;100838.28;10596646;28;20512;-76
2022/11/15 06:46:29;;;;;;;3.55;1.60;;;;;;;-0.07;100.00;100839.91;10587361;27;20529;-75
2022/11/15 06:51:49;;;;;;;2.00;1.50;;;;;;;-0.11;100.00;100844.06;10569608;28;20490;-77
2022/11/15 06:57:10;;;;;;;3.53;1.70;;;;;;;-0.14;100.00;100841.78;10610658;28;20409;-76
2022/11/15 07:02:31;;;;;;;3.20;1.98;;;;;;;-0.19;100.00;100844.25;10609672;27;20051;-76
2022/11/15 07:07:53;;;;;;;1.73;1.60;;;;;;;-0.23;100.00;100838.44;10610036;28;20532;-76
2022/11/15 07:13:14;;;;;;;3.10;2.08;;;;;;;-0.21;100.00;100843.63;10610890;28;20461;-76
2022/11/15 07:18:35;;;;;;;1.70;1.60;;;;;;;-0.18;100.00;100841.34;10607080;28;20055;-75
2022/11/15 07:23:56;;;;;;;4.03;1.60;;;;;;;-0.18;100.00;100849.44;10610744;28;20031;-75
2022/11/15 07:29:17;;;;;;;1.60;1.45;;;;;;;-0.14;100.00;100856.09;10611496;28;20039;-75
2022/11/15 07:34:37;;;;;;;1.88;1.42;;;;;;;-0.20;100.00;100854.22;10609707;28;20051;-74
2022/11/15 07:39:58;;;;;;;2.15;1.50;;;;;;;-0.21;100.00;100857.13;10591178;28;20418;-75
2022/11/15 07:45:23;;;;;;;1.58;1.20;;;;;;;-0.25;100.00;100854.00;10611464;28;20533;-75
2022/11/15 07:50:43;;;;;;;1.75;1.20;;;;;;;-0.23;100.00;100859.19;10631799;27;20055;-75
2022/11/15 07:56:07;;;;;;;2.10;1.40;;;;;;;-0.18;100.00;100857.53;10614855;28;20044;-76
2022/11/15 08:01:28;;;;;;;0.77;0.77;;;;;;;-0.16;100.00;100862.75;10575437;28;20518;-75
2022/11/15 08:06:49;;;;;;;2.15;1.20;;;;;;;-0.16;100.00;100863.56;10579321;28;20054;-76
2022/11/15 08:12:10;;;;;;;1.52;1.35;;;;;;;-0.15;100.00;100864.41;10618090;28;20047;-75
2022/11/15 08:17:33;;;;;;;1.30;1.17;;;;;;;-0.14;100.00;100872.28;10617675;28;20048;-75
2022/11/15 08:22:54;;;;;;;1.35;1.20;;;;;;;-0.13;100.00;100873.13;10617108;28;20073;-76
2022/11/15 08:28:16;;;;;;;2.17;1.90;;;;;;;-0.07;100.00;100875.81;10602247;28;20084;-75
2022/11/15 08:33:37;;;;;;;2.63;1.40;;;;;;;-0.10;100.00;100875.41;10600670;28;20417;-75
2022/11/15 08:38:57;;;;;;;3.80;1.83;;;;;;;-0.17;100.00;100875.41;10616524;28;20039;-75
2022/11/15 08:44:18;;;;;;;1.73;1.58;;;;;;;-0.15;100.00;100878.72;10616062;28;20409;-76
2022/11/15 08:49:39;;;;;;;1.58;1.48;;;;;;;-0.16;100.00;100885.16;10624018;27;20031;-75
2022/11/15 08:55:01;;;;;;;1.52;1.42;;;;;;;-0.13;100.00;100875.81;10581222;28;20046;-75
2022/11/15 09:00:21;;;;;;;2.47;1.35;;;;;;;-0.08;100.00;100887.66;10595774;27;20047;-76
2022/11/15 09:05:42;;;;;;;1.63;0.98;;;;;;;0.00;100.00;100889.31;10572509;28;20055;-74
2022/11/15 09:11:05;;;;;;;1.63;1.40;;;;;;;0.07;100.00;100889.31;10578491;28;20054;-75
2022/11/15 09:16:25;;;;;;;1.55;1.40;;;;;;;0.09;100.00;100889.94;10599758;28;20054;-75
2022/11/15 09:21:46;;;;;;;1.80;1.45;;;;;;;0.10;100.00;100889.72;10614827;28;20449;-75
2022/11/15 09:27:07;;;;;;;2.50;1.40;;;;;;;0.10;100.00;100886.22;10614491;28;20098;-75
2022/11/15 09:32:29;;;;;;;2.42;1.50;;;;;;;0.13;100.00;100888.50;10628074;27;20043;-76
2022/11/15 09:37:50;;;;;;;2.50;1.73;;;;;;;0.12;100.00;100893.06;10613423;28;20051;-76
2022/11/15 09:43:40;;;;;;;4.28;2.00;;;;;;;0.13;100.00;100894.72;10612136;28;20044;-75
2022/11/15 09:49:01;;;;;;;4.70;2.80;;;;;;;0.14;100.00;100900.94;10586115;28;20051;-76
2022/11/15 09:54:26;;;;;;;4.65;2.28;;;;;;;0.11;100.00;100888.69;10600196;27;20073;-76
2022/11/15 09:59:46;;;;;;;2.63;1.90;;;;;;;0.12;100.00;100903.84;10607180;27;20051;-75
2022/11/15 10:04:48;;;;;;;1.45;1.20;;;;;;;0.12;100.00;100911.94;10570266;28;20066;-75
2022/11/15 10:10:13;;;;;;;2.83;1.30;;;;;;;0.09;100.00;100917.75;10552038;28;20628;-75
2022/11/15 10:15:19;;;;;;;1.75;1.23;;;;;;;0.11;100.00;100920.25;10526611;28;20036;-75
2022/11/15 10:20:27;;;;;;;2.85;1.88;;;;;;;0.10;100.00;100922.13;10593797;28;20043;-76
2022/11/15 10:25:30;;;;;;;;;;;;;;;0.12;100.00;100935.41;10612151;28;20048;-75
2022/11/15 10:30:44;;;;;;;1.52;1.20;;;;;;;0.15;100.00;100930.41;10612042;28;19938;-77
2022/11/15 10:35:46;;;;;;;1.80;1.63;;;;;;;0.15;100.00;100930.41;10611976;28;20417;-76
2022/11/15 10:40:48;;;;;;;2.33;1.25;;;;;;;0.13;100.00;100940.59;10598853;27;20050;-75
2022/11/15 10:45:52;;;;;;;2.25;1.80;;;;;;;0.11;100.00;100941.84;10588723;28;20040;-75
2022/11/15 10:50:55;;;;;;;1.33;1.13;;;;;;;0.09;100.00;100960.09;10573758;28;20051;-75
2022/11/15 10:56:04;;;;;;;2.15;1.35;;;;;;;0.05;100.00;100962.38;10615446;27;20514;-77
2022/11/15 11:01:13;;;;;;;2.28;1.35;;;;;;;0.02;100.00;100965.50;10561638;28;20044;-77
2022/11/15 11:06:17;;;;;;;3.28;2.70;;;;;;;0.01;100.00;100981.88;10581685;28;20044;-77
2022/11/15 11:11:19;;;;;;;3.55;2.20;;;;;;;-0.02;100.00;100978.53;10596242;27;20436;-78
2022/11/15 11:16:37;;;;;;;2.58;2.08;;;;;;;-0.02;100.00;100967.75;10604132;28;20047;-77
2022/11/15 11:21:45;;;;;;;2.03;1.83;;;;;;;0.01;100.00;100971.91;10591793;28;20142;-75
2022/11/15 11:27:19;;;;;;;4.40;2.08;;;;;;;0.00;100.00;100975.66;10576945;28;20050;-76
2022/11/15 11:33:06;;;;;;;3.72;2.38;;;;;;;0.03;100.00;100987.91;10606894;28;20060;-77
2022/11/15 11:38:21;;;;;;;4.25;2.40;;;;;;;0.02;100.00;100978.97;10556789;28;20050;-76
2022/11/15 11:43:47;;;;;;;4.93;2.00;;;;;;;0.05;100.00;100983.97;10615937;28;20052;-76
2022/11/15 11:48:58;;;;;;;3.13;1.63;;;;;;;0.06;100.00;100974.81;10637583;27;20040;-76
2022/11/15 11:54:22;;;;;;;1.83;1.30;;;;;;;0.13;100.00;100994.56;10600223;27;20052;-76
2022/11/15 11:59:46;;;;;;;1.40;1.30;;;;;;;0.09;100.00;101001.41;10579181;28;20046;-76
2022/11/15 12:04:51;;;;;;;1.58;1.27;;;;;;;0.12;100.00;100998.28;10579033;28;20040;-75
2022/11/15 12:10:30;;;;;;;1.48;1.27;;;;;;;0.16;100.00;100996.00;10587444;28;20035;-74
2022/11/15 12:15:37;;;;;;;2.38;1.48;;;;;;;0.19;100.00;101001.84;10537805;28;20044;-76
2022/11/15 12:20:42;;;;;;;1.60;1.30;;;;;;;0.20;100.00;101006.22;10594847;28;20040;-76
2022/11/15 12:25:54;;;;;;;1.15;1.02;;;;;;;0.22;100.00;101006.00;10592359;28;20048;-79
2022/11/15 12:31:32;;;;;;;2.65;1.48;;;;;;;0.24;100.00;101006.63;10597018;28;20125;-78
2022/11/15 12:36:37;;;;;;;0.88;0.85;;;;;;;0.23;100.00;101010.38;10610728;28;20494;-78
2022/11/15 12:41:42;;;;;;;1.13;1.02;;;;;;;0.24;100.00;101020.94;10565723;28;20047;-83
2022/11/15 12:46:44;;;;;;;2.72;2.17;;;;;;;0.26;100.00;101018.03;10569217;28;20046;-78
2022/11/15 12:51:49;;;;;;;1.20;1.10;;;;;;;0.30;100.00;101008.50;10567347;28;20044;-78
2022/11/15 12:57:03;;;;;;;2.30;1.75;;;;;;;0.26;100.00;101018.88;10605935;28;20524;-76
2022/11/15 13:02:21;;;;;;;1.73;1.42;;;;;;;0.29;100.00;101023.84;10609082;28;20048;-75
2022/11/15 13:07:35;;;;;;;2.13;1.73;;;;;;;0.29;100.00;101031.97;10597768;28;20038;-76
2022/11/15 13:12:40;;;;;;;3.22;2.05;;;;;;;0.30;100.00;101030.09;10606058;28;20062;-76
2022/11/15 13:17:43;;;;;;;3.80;2.65;;;;;;;0.37;100.00;101046.31;10606592;28;20039;-77
2022/11/15 13:22:51;;;;;;;3.03;2.20;;;;;;;0.34;100.00;101046.69;10596149;28;20417;-77
2022/11/15 13:27:57;;;;;;;3.53;2.30;;;;;;;0.33;100.00;101039.63;10584506;28;20047;-76
2022/11/15 13:33:13;;;;;;;2.95;1.92;;;;;;;0.30;100.00;101047.13;10573221;28;20044;-76
2022/11/15 13:38:25;;;;;;;3.13;2.40;;;;;;;0.27;100.00;101076.38;10603156;28;20520;-84
2022/11/15 13:43:31;;;;;;;5.47;3.03;;;;;;;0.20;100.00;101073.69;10613435;28;20055;-75
2022/11/15 13:48:34;;;;;;;1.50;1.40;;;;;;;0.12;100.00;101091.91;10613699;28;20062;-74
2022/11/15 13:53:39;;;;;;;7.57;3.30;;;;;;;0.12;100.00;101078.41;10600238;27;20609;-75
2022/11/15 13:58:42;;;;;;;1.40;1.17;;;;;;;0.07;100.00;101075.50;10606907;27;20040;-75
2022/11/15 14:03:57;;;;;;;4.07;1.70;;;;;;;0.03;100.00;101096.66;10637364;27;20059;-75
2022/11/15 14:09:10;;;;;;;2.70;1.00;;;;;;;0.02;100.00;101094.97;10609860;27;20040;-75
2022/11/15 14:14:15;;;;;;;1.83;1.60;;;;;;;0.07;100.00;101094.38;10648988;27;20493;-74
2022/11/15 14:19:38;;;;;;;1.35;1.25;;;;;;;0.11;100.00;101117.22;10622879;27;20127;-75
2022/11/15 14:24:43;;;;;;;1.85;1.30;;;;;;;0.11;100.00;101107.25;10630424;27;20050;-75
2022/11/15 14:29:47;;;;;;;1.85;1.38;;;;;;;0.15;100.00;101119.31;10654669;27;20617;-75
2022/11/15 14:34:55;;;;;;;2.70;2.05;;;;;;;0.18;100.00;101128.88;10636496;27;20040;-75
2022/11/15 14:39:57;;;;;;;2.60;1.23;;;;;;;0.19;100.00;101144.88;10653279;27;20035;-75
2022/11/15 14:45:00;;;;;;;2.25;1.70;;;;;;;0.19;100.00;101142.19;10654409;27;20130;-74
2022/11/15 14:50:03;;;;;;;2.15;1.58;;;;;;;0.22;100.00;101149.88;10587793;28;20697;-76
2022/11/15 14:55:15;;;;;;;2.13;1.60;;;;;;;0.25;100.00;101167.53;10628355;27;20047;-75
2022/11/15 15:00:18;;;;;;;1.83;1.20;;;;;;;0.24;100.00;101163.16;10590983;27;20044;-76
2022/11/15 15:05:26;;;;;;;2.50;1.50;;;;;;;0.29;100.00;101171.47;10559734;28;20028;-76
2022/11/15 15:10:31;;;;;;;1.88;1.45;;;;;;;0.33;100.00;101174.59;10583369;28;20040;-78
2022/11/15 15:15:36;;;;;;;1.50;1.40;;;;;;;0.33;100.00;101183.53;10604387;27;20481;-78
2022/11/15 15:20:39;;;;;;;3.78;2.03;;;;;;;0.38;100.00;101191.88;10577818;28;20055;-76
2022/11/15 15:25:43;;;;;;;3.10;2.63;;;;;;;0.40;100.00;101192.50;10560808;28;20040;-75
2022/11/15 15:30:46;;;;;;;3.90;2.20;;;;;;;0.41;100.00;101190.66;10601716;28;20528;-77
2022/11/15 15:35:49;;;;;;;1.55;1.45;;;;;;;0.40;100.00;101199.78;10594948;28;20043;-75
2022/11/15 15:40:51;;;;;;;1.95;1.42;;;;;;;0.41;100.00;101204.97;10589900;28;20437;-75
2022/11/15 15:45:57;;;;;;;2.13;1.65;;;;;;;0.42;100.00;101206.63;10596457;28;20051;-75
2022/11/15 15:51:29;;;;;;;1.70;1.60;;;;;;;0.42;100.00;101195.00;10600470;28;20044;-76
2022/11/15 15:56:32;;;;;;;2.25;1.40;;;;;;;0.44;100.00;101187.53;10602880;28;20441;-75
2022/11/15 16:01:34;;;;;;;1.45;1.15;;;;;;;0.48;100.00;101188.78;10588321;28;20058;-78
2022/11/15 16:06:44;;;;;;;1.90;1.30;;;;;;;0.50;100.00;101189.41;10575079;28;20385;-75
2022/11/15 16:11:46;;;;;;;1.38;1.20;;;;;;;0.53;100.00;101194.44;10587889;28;20441;-75
2022/11/15 16:16:52;;;;;;;1.95;1.15;;;;;;;0.56;100.00;101186.75;10622691;27;20043;-76
2022/11/15 16:21:55;;;;;;;1.15;1.00;;;;;;;0.64;100.00;101188.44;10593082;28;20044;-77
2022/11/15 16:26:58;;;;;;;2.67;1.27;;;;;;;0.70;100.00;101194.91;10583962;28;20393;-75
2022/11/15 16:32:00;;;;;;;1.98;1.40;;;;;;;0.78;100.00;101206.38;10600442;28;20036;-75
2022/11/15 16:37:03;;;;;;;2.28;1.33;;;;;;;0.80;100.00;101220.50;10597452;28;20047;-75
2022/11/15 16:42:05;;;;;;;2.53;0.75;;;;;;;0.83;100.00;101219.25;10580532;28;20051;-80
2022/11/15 16:47:20;;;;;;;2.97;1.50;;;;;;;0.89;100.00;101222.00;10589830;28;20417;-79
2022/11/15 16:52:54;;;;;;;2.05;1.55;;;;;;;0.89;100.00;101219.28;10612302;27;20053;-80
2022/11/15 16:57:57;;;;;;;3.33;1.38;;;;;;;0.92;100.00;101231.56;10629734;27;20042;-79
2022/11/15 17:02:59;;;;;;;1.48;1.27;;;;;;;0.95;100.00;101233.00;10612500;28;20042;-78
2022/11/15 17:08:01;;;;;;;1.13;0.90;;;;;;;0.98;100.00;101232.59;10601825;28;20044;-78
2022/11/15 17:13:10;;;;;;;1.58;0.90;;;;;;;1.01;100.00;101229.50;10596038;28;20053;-80
2022/11/15 17:18:14;;;;;;;1.90;1.35;;;;;;;1.05;100.00;101233.47;10609332;28;20043;-77
2022/11/15 17:23:16;;;;;;;1.48;1.20;;;;;;;1.07;100.00;101232.22;10613205;28;20047;-78
2022/11/15 17:28:19;;;;;;;1.63;1.20;;;;;;;1.10;100.00;101236.38;10621335;27;20058;-78
2022/11/15 17:33:21;;;;;;;3.47;1.45;;;;;;;1.14;100.00;101237.63;10615946;27;20509;-79
2022/11/15 17:38:24;;;;;;;2.45;1.60;;;;;;;1.15;100.00;101245.53;10600507;28;20048;-79
2022/11/15 17:43:27;;;;;;;1.88;1.35;;;;;;;1.15;100.00;101250.13;10606470;28;20051;-78
2022/11/15 17:48:29;;;;;;;2.22;1.50;;;;;;;1.14;100.00;101253.84;10621853;28;20035;-80
2022/11/15 17:54:15;;;;;;;2.33;1.50;;;;;;;1.14;100.00;101257.38;10574895;28;20039;-78
2022/11/15 17:59:17;;;;;;;2.65;1.83;;;;;;;1.14;100.00;101265.50;10612756;27;20059;-80
2022/11/15 18:04:27;;;;;;;2.47;1.58;;;;;;;1.17;100.00;101264.25;10616851;27;20052;-78
2022/11/15 18:09:29;;;;;;;4.13;1.90;;;;;;;1.17;100.00;101259.69;10600790;28;20039;-78
2022/11/15 18:14:31;;;;;;;2.90;2.00;;;;;;;1.17;100.00;101256.16;10606060;27;20055;-78
2022/11/15 18:19:33;;;;;;;2.38;1.77;;;;;;;1.20;100.00;101263.84;10632980;27;20042;-80
2022/11/15 18:24:41;;;;;;;2.75;1.88;;;;;;;1.19;100.00;101262.19;10626153;27;20031;-80
2022/11/15 18:29:44;;;;;;;2.60;2.20;;;;;;;1.20;100.00;101247.63;10592034;28;20043;-78
2022/11/15 18:34:46;;;;;;;2.70;1.80;;;;;;;1.22;100.00;101253.69;10597810;27;20048;-79
2022/11/15 18:39:48;;;;;;;2.65;1.75;;;;;;;1.24;100.00;101256.19;10593828;27;20032;-77
2022/11/15 18:44:50;;;;;;;7.28;2.30;;;;;;;1.27;100.00;101259.28;10587680;28;20575;-76
2022/11/15 18:49:53;;;;;;;3.65;2.30;;;;;;;1.25;100.00;101258.69;10604234;27;20413;-76
2022/11/15 18:55:28;;;;;;;4.43;2.13;;;;;;;1.25;100.00;101266.78;10584075;28;20395;-77
2022/11/15 19:00:30;;;;;;;2.95;2.33;;;;;;;1.27;100.00;101274.69;10580437;28;20498;-78
2022/11/15 19:05:34;;;;;;;4.53;2.38;;;;;;;1.27;100.00;101272.81;10606122;28;20050;-78
2022/11/15 19:10:36;;;;;;;4.38;2.78;;;;;;;1.29;100.00;101278.84;10623962;27;20035;-78
2022/11/15 19:15:38;;;;;;;2.80;2.05;;;;;;;1.33;100.00;101274.69;10619995;28;20049;-78
2022/11/15 19:20:44;;;;;;;3.03;2.33;;;;;;;1.37;100.00;101286.75;10615647;28;20039;-77
2022/11/15 19:25:58;;;;;;;3.83;2.08;;;;;;;1.34;100.00;101287.16;10604474;28;20044;-78
2022/11/15 19:31:11;;;;;;;2.55;1.90;;;;;;;1.25;100.00;101287.56;10619287;28;20050;-78
2022/11/15 19:36:28;;;;;;;2.25;1.73;;;;;;;1.15;100.00;101293.34;10609684;28;20044;-79
2022/11/15 19:41:30;;;;;;;2.33;1.42;;;;;;;1.10;100.00;101303.94;10625563;27;20036;-77
2022/11/15 19:46:33;;;;;;;2.05;1.50;;;;;;;1.06;100.00;101306.22;10586851;28;20054;-77
2022/11/15 19:51:37;;;;;;;2.72;1.52;;;;;;;1.00;100.00;101309.72;10602211;28;20051;-78
2022/11/15 19:57:12;;;;;;;1.60;0.80;;;;;;;0.97;100.00;101315.53;10602616;28;20028;-78
2022/11/15 20:02:14;;;;;;;2.38;0.90;;;;;;;0.92;100.00;101319.88;10601022;28;20133;-78
2022/11/15 20:07:17;;;;;;;0.80;0.70;;;;;;;0.87;100.00;101331.31;10616236;28;20047;-77
2022/11/15 20:12:23;;;;;;;0.63;0.50;;;;;;;0.78;100.00;101340.59;10578394;28;20050;-80
2022/11/15 20:17:26;;;;;;;0.82;0.63;;;;;;;0.73;100.00;101327.69;10602972;28;20510;-76
2022/11/15 20:22:29;;;;;;;1.10;1.00;;;;;;;0.71;100.00;101327.06;10616221;27;20056;-78
2022/11/15 20:27:35;;;;;;;0.80;0.80;;;;;;;0.70;100.00;101328.09;10593479;28;20058;-78
2022/11/15 20:32:38;;;;;;;1.05;0.93;;;;;;;0.73;100.00;101316.91;10589905;27;20051;-78
2022/11/15 20:37:41;;;;;;;1.70;1.00;;;;;;;0.76;100.00;101323.75;10599110;28;20043;-78
2022/11/15 20:42:44;;;;;;;2.22;1.13;;;;;;;0.81;100.00;101330.22;10622051;27;20054;-78
2022/11/15 20:47:50;;;;;;;1.35;1.13;;;;;;;0.88;100.00;101330.28;10606075;27;20406;-78
2022/11/15 20:52:54;;;;;;;1.60;1.20;;;;;;;0.89;100.00;101327.38;10590935;27;20028;-76
2022/11/15 20:58:28;;;;;;;1.88;1.30;;;;;;;0.88;100.00;101330.28;10592157;28;20540;-79
2022/11/15 21:03:31;;;;;;;1.63;0.90;;;;;;;0.89;100.00;101315.72;10592833;28;20418;-78
2022/11/15 21:13:58;;;;;;;1.17;1.08;;;;;;;0.90;100.00;101326.31;10610197;28;20517;-79
2022/11/15 21:19:01;;;;;;;1.40;1.30;;;;;;;0.85;100.00;101339.59;10589481;28;20043;-79
2022/11/15 21:24:05;;;;;;;1.83;1.40;;;;;;;0.82;100.00;101334.59;10583221;27;20409;-79
2022/11/15 21:29:07;;;;;;;1.20;1.10;;;;;;;0.78;100.00;101335.19;10609843;27;20050;-79
2022/11/15 21:34:09;;;;;;;1.65;1.20;;;;;;;0.74;100.00;101329.38;10573694;27;20039;-78
2022/11/15 21:39:15;;;;;;;1.10;1.00;;;;;;;0.67;100.00;101336.56;10607371;28;20123;-77
2022/11/15 21:44:17;;;;;;;1.92;1.27;;;;;;;0.64;100.00;101339.69;10587899;28;20063;-78
2022/11/15 21:49:21;;;;;;;1.10;1.00;;;;;;;0.58;100.00;101335.09;10601969;27;20039;-77
2022/11/15 21:54:23;;;;;;;1.52;1.25;;;;;;;0.53;100.00;101338.38;10584584;28;20087;-78
2022/11/15 21:59:26;;;;;;;1.92;1.50;;;;;;;0.49;100.00;101338.97;10596567;28;20059;-78
2022/11/15 22:04:28;;;;;;;1.52;1.20;;;;;;;0.42;100.00;101343.50;10596955;28;20056;-78
2022/11/15 22:09:31;;;;;;;1.02;0.93;;;;;;;0.41;100.00;101352.63;10594544;28;20028;-79
2022/11/15 22:14:33;;;;;;;0.88;0.77;;;;;;;0.42;100.00;101349.72;10601949;27;20048;-78
2022/11/15 22:19:35;;;;;;;1.40;1.00;;;;;;;0.40;100.00;101349.09;10604143;28;20031;-79
2022/11/15 22:24:37;;;;;;;2.53;1.17;;;;;;;0.38;100.00;101353.84;10597524;28;20051;-78
2022/11/15 22:29:40;;;;;;;1.15;0.93;;;;;;;0.33;100.00;101347.38;10588260;28;20059;-79
2022/11/15 22:34:42;;;;;;;0.98;0.88;;;;;;;0.27;100.00;101349.00;10602135;27;20497;-79
2022/11/15 22:39:44;;;;;;;0.98;0.70;;;;;;;0.21;99.88;101361.41;10599488;28;20525;-77
2022/11/15 22:44:46;;;;;;;0.68;0.60;;;;;;;0.19;99.99;101359.94;10601398;28;20047;-78
2022/11/15 22:49:49;;;;;;;1.63;0.80;;;;;;;0.15;99.00;101366.75;10603995;28;20039;-79
2022/11/15 22:54:51;;;;;;;0.80;0.60;;;;;;;0.10;99.02;101358.41;10602449;28;20044;-77
2022/11/15 22:59:53;;;;;;;0.98;0.82;;;;;;;0.02;98.79;101367.47;10575943;28;20440;-82
2022/11/15 23:04:55;;;;;;;1.13;0.82;;;;;;;-0.02;98.63;101379.66;10600793;28;20040;-82
2022/11/15 23:13:14;;;;;;;0.93;0.77;;;;;;;-0.06;97.93;101373.00;10585339;28;20046;-83
2022/11/15 23:15:20;;;;;;;1.88;0.73;;;;;;;-0.08;97.80;101385.84;10570121;28;20310;-81
2022/11/15 23:20:22;;;;;;;1.33;0.70;;;;;;;-0.14;98.25;101383.94;10601897;28;20043;-82
2022/11/15 23:25:24;;;;;;;0.98;0.70;;;;;;;-0.19;98.20;101384.47;10600932;28;20501;-82
2022/11/15 23:35:54;;;;;;;0.70;0.70;;;;;;;-0.32;97.99;101378.97;10601310;28;20047;-83
2022/11/15 23:40:56;;;;;;;1.65;1.30;;;;;;;-0.35;97.22;101382.03;10589097;28;20036;-83
2022/11/15 23:46:00;;;;;;;1.73;1.40;;;;;;;-0.39;97.76;101376.19;10601174;28;20051;-82
2022/11/15 23:51:02;;;;;;;1.30;1.10;;;;;;;-0.44;97.21;101373.25;10592262;28;20048;-82
2022/11/15 23:56:15;;;;;;;2.15;1.30;;;;;;;-0.47;97.10;101378.19;10599751;28;20054;-82
